Skylark — T8A2137 — position and weather

sailwx.info

Track history (hours):
 
Tides and Currents Weather Stations Pressure Air Temp Water Temp Dewpoint Dewpoint Depression Visibility Wind Speed Wind Dir Waves Ship Positions

Skylark

Last reported at 2017-Sep-20 12:48 UTC. Time now 2017-Sep-23 07:44 UTC.
Position N 37°54' E 023°04'.

Length 61 m; draft 5.2 m.

Type: Cargo ship. MMSI: 511177000.

Date/timePositionNaut miles runAvg speedWind from/ knotsBaromVisibWave heightAir tempDewpointWater temp
2017-Sep-20 12:48N 37°54' E 023°04'2 6.0
2017-Sep-20 12:28N 37°53' E 023°06'4 6.1
2017-Sep-20 11:52N 37°53' E 023°11'2 6.0
2017-Sep-20 11:30N 37°52' E 023°13'3 6.0
2017-Sep-20 11:00N 37°52' E 023°17'3 6.2
2017-Sep-20 10:31N 37°52' E 023°21'3 6.3
2017-Sep-20 10:00N 37°51' E 023°25'3 6.4
2017-Sep-20 09:30N 37°51' E 023°29'2 4.9
2017-Sep-20 09:00N 37°51' E 023°32'3 6.6
2017-Sep-20 08:30N 37°54' E 023°35'3 6.0
2017-Sep-20 08:01N 37°57' E 023°36'3 6.2
2017-Sep-20 07:30N 37°59' E 023°33'3 6.6
2017-Sep-20 07:00N 38°01' E 023°35'1 1.6
2017-Sep-20 06:30N 38°02' E 023°35'0 0.0
2017-Sep-20 06:00N 38°02' E 023°35'0 0.0
2017-Sep-20 05:31N 38°02' E 023°35'0 0.0
2017-Sep-20 05:00N 38°02' E 023°35'0 0.0
2017-Sep-20 04:30N 38°02' E 023°35'0 0.0
2017-Sep-20 04:01N 38°02' E 023°35'0 0.0
2017-Sep-20 03:30N 38°02' E 023°35'0 0.0
2017-Sep-20 03:01N 38°02' E 023°35'0 0.0
2017-Sep-20 02:31N 38°02' E 023°35'0 0.0
2017-Sep-20 02:00N 38°02' E 023°35'0 0.0
2017-Sep-20 01:30N 38°02' E 023°35'0 0.0
2017-Sep-20 01:00N 38°02' E 023°35'0 0.0
2017-Sep-20 00:30N 38°02' E 023°35'0 0.0
2017-Sep-20 00:00N 38°02' E 023°35'0 0.0
2017-Sep-19 23:31N 38°02' E 023°35'0 0.0
2017-Sep-19 23:00N 38°02' E 023°35'0 0.0
2017-Sep-19 22:30N 38°02' E 023°35'0 0.0
2017-Sep-19 22:00N 38°02' E 023°35'0 0.0
2017-Sep-19 21:30N 38°02' E 023°35'0 0.0
2017-Sep-19 21:00N 38°02' E 023°35'0 0.0
2017-Sep-19 20:30N 38°02' E 023°35'0 0.0
2017-Sep-19 20:00N 38°02' E 023°35'0 0.0
2017-Sep-19 19:30N 38°02' E 023°35'0 0.0
2017-Sep-19 19:00N 38°02' E 023°35'0 0.0
2017-Sep-19 18:30N 38°02' E 023°35'0 0.1
2017-Sep-19 18:00N 38°02' E 023°35'0 0.0
2017-Sep-19 17:30N 38°02' E 023°35'0 0.0
2017-Sep-19 17:01N 38°02' E 023°35'0 0.0
2017-Sep-19 16:31N 38°02' E 023°35'0 0.0
2017-Sep-19 16:01N 38°02' E 023°35'0 0.0
2017-Sep-19 15:30N 38°02' E 023°35'0 0.0
2017-Sep-19 15:00N 38°02' E 023°35'0 0.0
2017-Sep-19 14:30N 38°02' E 023°35'0 0.0
2017-Sep-19 14:00N 38°02' E 023°35'0 0.0
2017-Sep-19 13:30N 38°02' E 023°35'0 0.0
2017-Sep-19 13:00N 38°02' E 023°35'0 0.0
2017-Sep-19 12:30N 38°02' E 023°35'0 0.0
2017-Sep-19 12:00N 38°02' E 023°35'0 0.0
2017-Sep-19 11:30N 38°02' E 023°35'0 0.0
2017-Sep-19 11:00N 38°02' E 023°35'0 0.0
2017-Sep-19 10:30N 38°02' E 023°35'0 0.0
2017-Sep-19 10:00N 38°02' E 023°35'0 0.0
2017-Sep-19 09:30N 38°02' E 023°35'0 0.0
2017-Sep-19 09:00N 38°02' E 023°35'0 0.0
2017-Sep-19 08:30N 38°02' E 023°35'0 0.0
2017-Sep-19 08:00N 38°02' E 023°35'0 0.0
2017-Sep-19 07:30N 38°02' E 023°35'0 0.0
2017-Sep-19 07:00N 38°02' E 023°35'0 0.0
2017-Sep-19 06:30N 38°02' E 023°35'0 0.0
2017-Sep-19 06:00N 38°02' E 023°35'0 0.0
2017-Sep-19 05:30N 38°02' E 023°35'0 0.0
2017-Sep-19 05:00N 38°02' E 023°35'0 0.0
2017-Sep-19 04:30N 38°02' E 023°35'0 0.0
2017-Sep-19 04:00N 38°02' E 023°35'0 0.0
2017-Sep-19 03:30N 38°02' E 023°35'0 0.0
2017-Sep-19 03:00N 38°02' E 023°35'0 0.0
2017-Sep-19 02:30N 38°02' E 023°35'0 0.0
2017-Sep-19 02:00N 38°02' E 023°35'0 0.0
2017-Sep-19 01:30N 38°02' E 023°35'0 0.0
2017-Sep-19 01:00N 38°02' E 023°35'0 0.0
2017-Sep-19 00:30N 38°02' E 023°35'0 0.0
2017-Sep-19 00:01N 38°02' E 023°35'0 0.0
2017-Sep-18 23:30N 38°02' E 023°35'0 0.0
2017-Sep-18 23:00N 38°02' E 023°35'0 0.0
2017-Sep-18 22:30N 38°02' E 023°35'0 0.0
2017-Sep-18 22:00N 38°02' E 023°35'0 0.0
2017-Sep-18 21:30N 38°02' E 023°35'0 0.0
2017-Sep-18 21:00N 38°02' E 023°35'0 0.0
2017-Sep-18 20:31N 38°02' E 023°35'0 0.0
2017-Sep-18 20:00N 38°02' E 023°35'0 0.0
2017-Sep-18 19:31N 38°02' E 023°35'0 0.0
2017-Sep-18 19:01N 38°02' E 023°35'0 0.0
2017-Sep-18 18:30N 38°02' E 023°35'0 0.0
2017-Sep-18 18:00N 38°02' E 023°35'0 0.0
2017-Sep-18 17:30N 38°02' E 023°35'0 0.0
2017-Sep-18 17:00N 38°02' E 023°35'0 0.0
2017-Sep-18 16:30N 38°02' E 023°35'0 0.0
2017-Sep-18 16:00N 38°02' E 023°35'0 0.0
2017-Sep-18 15:30N 38°02' E 023°35'0 0.0
2017-Sep-18 15:00N 38°02' E 023°35'0 0.0
2017-Sep-18 14:30N 38°02' E 023°35'0 0.0
2017-Sep-18 14:00N 38°02' E 023°35'0 0.0
2017-Sep-18 13:30N 38°02' E 023°35'0 0.0
2017-Sep-18 13:00N 38°02' E 023°35'0 0.0
2017-Sep-18 12:31N 38°02' E 023°35'0 0.0
2017-Sep-18 12:00N 38°02' E 023°35'0 0.0
2017-Sep-18 11:30N 38°02' E 023°35'0 0.0
2017-Sep-18 11:00N 38°02' E 023°35'0 0.0
2017-Sep-18 10:30N 38°02' E 023°35'1 2.6
2017-Sep-18 10:00N 38°02' E 023°34'1 1.6
2017-Sep-18 09:31N 38°02' E 023°33'0 0.1
2017-Sep-18 09:01N 38°02' E 023°33'0 0.1
2017-Sep-18 08:31N 38°02' E 023°33'0 0.0
2017-Sep-18 08:01N 38°02' E 023°33'0 0.0
2017-Sep-18 07:31N 38°02' E 023°33'0 0.0
2017-Sep-18 07:00N 38°02' E 023°33'2 3.9
2017-Sep-18 06:31N 38°02' E 023°35'3 5.3
2017-Sep-18 06:00N 37°60' E 023°33'3 6.3
2017-Sep-18 05:30N 37°57' E 023°35'3 5.6
2017-Sep-18 05:00N 37°54' E 023°35'4 7.3
2017-Sep-18 04:30N 37°52' E 023°31'4 8.0
2017-Sep-18 04:00N 37°50' E 023°26'2 3.7
2017-Sep-18 03:30N 37°50' E 023°24'1 1.5
2017-Sep-18 03:01N 37°51' E 023°23'2 3.3
2017-Sep-18 02:30N 37°52' E 023°24'0 0.2
2017-Sep-18 02:00N 37°52' E 023°24'0 0.8
2017-Sep-18 01:30N 37°52' E 023°24'1 1.1
2017-Sep-18 01:00N 37°53' E 023°23'1 1.0
2017-Sep-18 00:30N 37°53' E 023°23'3 6.6
2017-Sep-18 00:00N 37°53' E 023°18'106 3.2
2017-Sep-16 15:08N 38°16' E 021°07'1 7.7
2017-Sep-16 15:00N 38°16' E 021°05'4 8.3
2017-Sep-16 14:31N 38°19' E 021°01'  
Track history (hours):
 
Tides and Currents Weather Stations Pressure Air Temp Water Temp Dewpoint Dewpoint Depression Visibility Wind Speed Wind Dir Waves Ship Positions

Skylark

Last reported at 2017-Sep-20 12:48 UTC. Time now 2017-Sep-23 07:44 UTC.
Position N 37°54' E 023°04'.

Length 61 m; draft 5.2 m.

Type: Cargo ship. MMSI: 511177000.

Date/timePositionNaut miles runAvg speedWind from/ knotsBaromVisibWave heightAir tempDewpointWater temp
2017-Sep-20 12:48N 37°54' E 023°04'2 6.0
2017-Sep-20 12:28N 37°53' E 023°06'4 6.1
2017-Sep-20 11:52N 37°53' E 023°11'2 6.0
2017-Sep-20 11:30N 37°52' E 023°13'3 6.0
2017-Sep-20 11:00N 37°52' E 023°17'3 6.2
2017-Sep-20 10:31N 37°52' E 023°21'3 6.3
2017-Sep-20 10:00N 37°51' E 023°25'3 6.4
2017-Sep-20 09:30N 37°51' E 023°29'2 4.9
2017-Sep-20 09:00N 37°51' E 023°32'3 6.6
2017-Sep-20 08:30N 37°54' E 023°35'3 6.0
2017-Sep-20 08:01N 37°57' E 023°36'3 6.2
2017-Sep-20 07:30N 37°59' E 023°33'3 6.6
2017-Sep-20 07:00N 38°01' E 023°35'1 1.6
2017-Sep-20 06:30N 38°02' E 023°35'0 0.0
2017-Sep-20 06:00N 38°02' E 023°35'0 0.0
2017-Sep-20 05:31N 38°02' E 023°35'0 0.0
2017-Sep-20 05:00N 38°02' E 023°35'0 0.0
2017-Sep-20 04:30N 38°02' E 023°35'0 0.0
2017-Sep-20 04:01N 38°02' E 023°35'0 0.0
2017-Sep-20 03:30N 38°02' E 023°35'0 0.0
2017-Sep-20 03:01N 38°02' E 023°35'0 0.0
2017-Sep-20 02:31N 38°02' E 023°35'0 0.0
2017-Sep-20 02:00N 38°02' E 023°35'0 0.0
2017-Sep-20 01:30N 38°02' E 023°35'0 0.0
2017-Sep-20 01:00N 38°02' E 023°35'0 0.0
2017-Sep-20 00:30N 38°02' E 023°35'0 0.0
2017-Sep-20 00:00N 38°02' E 023°35'0 0.0
2017-Sep-19 23:31N 38°02' E 023°35'0 0.0
2017-Sep-19 23:00N 38°02' E 023°35'0 0.0
2017-Sep-19 22:30N 38°02' E 023°35'0 0.0
2017-Sep-19 22:00N 38°02' E 023°35'0 0.0
2017-Sep-19 21:30N 38°02' E 023°35'0 0.0
2017-Sep-19 21:00N 38°02' E 023°35'0 0.0
2017-Sep-19 20:30N 38°02' E 023°35'0 0.0
2017-Sep-19 20:00N 38°02' E 023°35'0 0.0
2017-Sep-19 19:30N 38°02' E 023°35'0 0.0
2017-Sep-19 19:00N 38°02' E 023°35'0 0.0
2017-Sep-19 18:30N 38°02' E 023°35'0 0.1
2017-Sep-19 18:00N 38°02' E 023°35'0 0.0
2017-Sep-19 17:30N 38°02' E 023°35'0 0.0
2017-Sep-19 17:01N 38°02' E 023°35'0 0.0
2017-Sep-19 16:31N 38°02' E 023°35'0 0.0
2017-Sep-19 16:01N 38°02' E 023°35'0 0.0
2017-Sep-19 15:30N 38°02' E 023°35'0 0.0
2017-Sep-19 15:00N 38°02' E 023°35'0 0.0
2017-Sep-19 14:30N 38°02' E 023°35'0 0.0
2017-Sep-19 14:00N 38°02' E 023°35'0 0.0
2017-Sep-19 13:30N 38°02' E 023°35'0 0.0
2017-Sep-19 13:00N 38°02' E 023°35'0 0.0
2017-Sep-19 12:30N 38°02' E 023°35'0 0.0
2017-Sep-19 12:00N 38°02' E 023°35'0 0.0
2017-Sep-19 11:30N 38°02' E 023°35'0 0.0
2017-Sep-19 11:00N 38°02' E 023°35'0 0.0
2017-Sep-19 10:30N 38°02' E 023°35'0 0.0
2017-Sep-19 10:00N 38°02' E 023°35'0 0.0
2017-Sep-19 09:30N 38°02' E 023°35'0 0.0
2017-Sep-19 09:00N 38°02' E 023°35'0 0.0
2017-Sep-19 08:30N 38°02' E 023°35'0 0.0
2017-Sep-19 08:00N 38°02' E 023°35'0 0.0
2017-Sep-19 07:30N 38°02' E 023°35'0 0.0
2017-Sep-19 07:00N 38°02' E 023°35'0 0.0
2017-Sep-19 06:30N 38°02' E 023°35'0 0.0
2017-Sep-19 06:00N 38°02' E 023°35'0 0.0
2017-Sep-19 05:30N 38°02' E 023°35'0 0.0
2017-Sep-19 05:00N 38°02' E 023°35'0 0.0
2017-Sep-19 04:30N 38°02' E 023°35'0 0.0
2017-Sep-19 04:00N 38°02' E 023°35'0 0.0
2017-Sep-19 03:30N 38°02' E 023°35'0 0.0
2017-Sep-19 03:00N 38°02' E 023°35'0 0.0
2017-Sep-19 02:30N 38°02' E 023°35'0 0.0
2017-Sep-19 02:00N 38°02' E 023°35'0 0.0
2017-Sep-19 01:30N 38°02' E 023°35'0 0.0
2017-Sep-19 01:00N 38°02' E 023°35'0 0.0
2017-Sep-19 00:30N 38°02' E 023°35'0 0.0
2017-Sep-19 00:01N 38°02' E 023°35'0 0.0
2017-Sep-18 23:30N 38°02' E 023°35'0 0.0
2017-Sep-18 23:00N 38°02' E 023°35'0 0.0
2017-Sep-18 22:30N 38°02' E 023°35'0 0.0
2017-Sep-18 22:00N 38°02' E 023°35'0 0.0
2017-Sep-18 21:30N 38°02' E 023°35'0 0.0
2017-Sep-18 21:00N 38°02' E 023°35'0 0.0
2017-Sep-18 20:31N 38°02' E 023°35'0 0.0
2017-Sep-18 20:00N 38°02' E 023°35'0 0.0
2017-Sep-18 19:31N 38°02' E 023°35'0 0.0
2017-Sep-18 19:01N 38°02' E 023°35'0 0.0
2017-Sep-18 18:30N 38°02' E 023°35'0 0.0
2017-Sep-18 18:00N 38°02' E 023°35'0 0.0
2017-Sep-18 17:30N 38°02' E 023°35'0 0.0
2017-Sep-18 17:00N 38°02' E 023°35'0 0.0
2017-Sep-18 16:30N 38°02' E 023°35'0 0.0
2017-Sep-18 16:00N 38°02' E 023°35'0 0.0
2017-Sep-18 15:30N 38°02' E 023°35'0 0.0
2017-Sep-18 15:00N 38°02' E 023°35'0 0.0
2017-Sep-18 14:30N 38°02' E 023°35'0 0.0
2017-Sep-18 14:00N 38°02' E 023°35'0 0.0
2017-Sep-18 13:30N 38°02' E 023°35'0 0.0
2017-Sep-18 13:00N 38°02' E 023°35'0 0.0
2017-Sep-18 12:31N 38°02' E 023°35'0 0.0
2017-Sep-18 12:00N 38°02' E 023°35'0 0.0
2017-Sep-18 11:30N 38°02' E 023°35'0 0.0
2017-Sep-18 11:00N 38°02' E 023°35'0 0.0
2017-Sep-18 10:30N 38°02' E 023°35'1 2.6
2017-Sep-18 10:00N 38°02' E 023°34'1 1.6
2017-Sep-18 09:31N 38°02' E 023°33'0 0.1
2017-Sep-18 09:01N 38°02' E 023°33'0 0.1
2017-Sep-18 08:31N 38°02' E 023°33'0 0.0
2017-Sep-18 08:01N 38°02' E 023°33'0 0.0
2017-Sep-18 07:31N 38°02' E 023°33'0 0.0
2017-Sep-18 07:00N 38°02' E 023°33'2 3.9
2017-Sep-18 06:31N 38°02' E 023°35'3 5.3
2017-Sep-18 06:00N 37°60' E 023°33'3 6.3
2017-Sep-18 05:30N 37°57' E 023°35'3 5.6
2017-Sep-18 05:00N 37°54' E 023°35'4 7.3
2017-Sep-18 04:30N 37°52' E 023°31'4 8.0
2017-Sep-18 04:00N 37°50' E 023°26'2 3.7
2017-Sep-18 03:30N 37°50' E 023°24'1 1.5
2017-Sep-18 03:01N 37°51' E 023°23'2 3.3
2017-Sep-18 02:30N 37°52' E 023°24'0 0.2
2017-Sep-18 02:00N 37°52' E 023°24'0 0.8
2017-Sep-18 01:30N 37°52' E 023°24'1 1.1
2017-Sep-18 01:00N 37°53' E 023°23'1 1.0
2017-Sep-18 00:30N 37°53' E 023°23'3 6.6
2017-Sep-18 00:00N 37°53' E 023°18'106 3.2
2017-Sep-16 15:08N 38°16' E 021°07'1 7.7
2017-Sep-16 15:00N 38°16' E 021°05'4 8.3
2017-Sep-16 14:31N 38°19' E 021°01'  

Dump ship's entire track history